sensor_id;sensor_type;location;lat;lon;timestamp;temperature;humidity
44833;DHT22;30569;51.252;9.830;2023-05-10T00:00:21;15.30;73.40
44833;DHT22;30569;51.252;9.830;2023-05-10T00:02:48;15.30;74.00
44833;DHT22;30569;51.252;9.830;2023-05-10T00:05:13;15.30;73.90
44833;DHT22;30569;51.252;9.830;2023-05-10T00:07:39;15.40;74.80
44833;DHT22;30569;51.252;9.830;2023-05-10T00:10:05;15.70;76.20
44833;DHT22;30569;51.252;9.830;2023-05-10T00:12:31;15.80;75.70
44833;DHT22;30569;51.252;9.830;2023-05-10T00:14:56;16.00;78.40
44833;DHT22;30569;51.252;9.830;2023-05-10T00:17:22;15.90;83.90
44833;DHT22;30569;51.252;9.830;2023-05-10T00:19:47;15.80;86.50
44833;DHT22;30569;51.252;9.830;2023-05-10T00:22:13;15.80;86.00
44833;DHT22;30569;51.252;9.830;2023-05-10T00:24:39;16.20;86.10
44833;DHT22;30569;51.252;9.830;2023-05-10T00:27:05;16.20;87.00
44833;DHT22;30569;51.252;9.830;2023-05-10T00:29:30;16.20;86.30
44833;DHT22;30569;51.252;9.830;2023-05-10T00:31:57;16.10;87.00
44833;DHT22;30569;51.252;9.830;2023-05-10T00:34:22;16.10;88.40
44833;DHT22;30569;51.252;9.830;2023-05-10T00:36:48;16.20;88.40
44833;DHT22;30569;51.252;9.830;2023-05-10T00:39:13;16.00;89.90
44833;DHT22;30569;51.252;9.830;2023-05-10T00:41:39;16.00;88.90
44833;DHT22;30569;51.252;9.830;2023-05-10T00:44:04;15.90;90.20
44833;DHT22;30569;51.252;9.830;2023-05-10T00:46:30;15.80;91.30
44833;DHT22;30569;51.252;9.830;2023-05-10T00:48:56;15.60;91.90
44833;DHT22;30569;51.252;9.830;2023-05-10T00:51:22;15.60;92.10
44833;DHT22;30569;51.252;9.830;2023-05-10T00:53:48;15.60;92.20
44833;DHT22;30569;51.252;9.830;2023-05-10T00:56:15;15.50;92.30
44833;DHT22;30569;51.252;9.830;2023-05-10T00:58:41;15.70;92.10
44833;DHT22;30569;51.252;9.830;2023-05-10T01:01:08;15.70;92.60
44833;DHT22;30569;51.252;9.830;2023-05-10T01:03:35;15.60;93.40
44833;DHT22;30569;51.252;9.830;2023-05-10T01:06:01;15.50;93.70
44833;DHT22;30569;51.252;9.830;2023-05-10T01:08:26;15.70;93.80
44833;DHT22;30569;51.252;9.830;2023-05-10T01:10:53;15.70;94.70
44833;DHT22;30569;51.252;9.830;2023-05-10T01:13:32;15.70;95.40
44833;DHT22;30569;51.252;9.830;2023-05-10T01:15:58;15.50;97.30
44833;DHT22;30569;51.252;9.830;2023-05-10T01:18:27;14.90;99.90
44833;DHT22;30569;51.252;9.830;2023-05-10T01:21:23;14.80;99.90
44833;DHT22;30569;51.252;9.830;2023-05-10T01:24:09;14.70;99.90
44833;DHT22;30569;51.252;9.830;2023-05-10T01:27:09;14.40;99.90
44833;DHT22;30569;51.252;9.830;2023-05-10T01:29:50;15.20;99.90
44833;DHT22;30569;51.252;9.830;2023-05-10T01:32:36;15.10;99.90
44833;DHT22;30569;51.252;9.830;2023-05-10T01:37:52;15.60;99.90
44833;DHT22;30569;51.252;9.830;2023-05-10T01:40:42;15.70;99.90
44833;DHT22;30569;51.252;9.830;2023-05-10T01:43:19;15.70;99.90
44833;DHT22;30569;51.252;9.830;2023-05-10T01:45:54;15.90;99.90
44833;DHT22;30569;51.252;9.830;2023-05-10T01:48:26;16.10;99.90
44833;DHT22;30569;51.252;9.830;2023-05-10T01:50:53;16.10;99.90
44833;DHT22;30569;51.252;9.830;2023-05-10T01:53:20;16.00;99.90
44833;DHT22;30569;51.252;9.830;2023-05-10T01:55:49;16.10;99.90
44833;DHT22;30569;51.252;9.830;2023-05-10T01:58:22;16.10;99.90
44833;DHT22;30569;51.252;9.830;2023-05-10T02:00:50;15.90;99.90
44833;DHT22;30569;51.252;9.830;2023-05-10T02:03:20;15.90;99.90
44833;DHT22;30569;51.252;9.830;2023-05-10T02:05:48;15.90;99.90
44833;DHT22;30569;51.252;9.830;2023-05-10T02:08:15;16.00;99.90
44833;DHT22;30569;51.252;9.830;2023-05-10T02:10:43;15.90;99.90
44833;DHT22;30569;51.252;9.830;2023-05-10T02:13:10;16.00;99.90
44833;DHT22;30569;51.252;9.830;2023-05-10T02:15:37;16.00;99.90
44833;DHT22;30569;51.252;9.830;2023-05-10T02:18:04;15.80;99.90
44833;DHT22;30569;51.252;9.830;2023-05-10T02:20:31;15.20;99.90
44833;DHT22;30569;51.252;9.830;2023-05-10T02:22:58;15.10;99.90
44833;DHT22;30569;51.252;9.830;2023-05-10T02:25:25;15.30;99.90
44833;DHT22;30569;51.252;9.830;2023-05-10T02:27:54;15.60;99.90
44833;DHT22;30569;51.252;9.830;2023-05-10T02:30:21;15.50;99.90
44833;DHT22;30569;51.252;9.830;2023-05-10T02:32:49;15.20;99.90
44833;DHT22;30569;51.252;9.830;2023-05-10T02:35:15;15.10;99.90
44833;DHT22;30569;51.252;9.830;2023-05-10T02:37:42;15.40;99.90
44833;DHT22;30569;51.252;9.830;2023-05-10T02:40:09;14.90;99.90
44833;DHT22;30569;51.252;9.830;2023-05-10T02:42:37;14.80;99.90
44833;DHT22;30569;51.252;9.830;2023-05-10T02:45:08;14.50;99.90
44833;DHT22;30569;51.252;9.830;2023-05-10T02:47:35;14.50;99.90
44833;DHT22;30569;51.252;9.830;2023-05-10T02:50:01;14.20;99.90
44833;DHT22;30569;51.252;9.830;2023-05-10T02:52:29;14.20;99.90
44833;DHT22;30569;51.252;9.830;2023-05-10T02:55:00;14.10;99.90
44833;DHT22;30569;51.252;9.830;2023-05-10T02:57:33;14.40;99.90
44833;DHT22;30569;51.252;9.830;2023-05-10T02:59:59;14.20;99.90
44833;DHT22;30569;51.252;9.830;2023-05-10T03:02:26;14.20;99.90
44833;DHT22;30569;51.252;9.830;2023-05-10T03:04:52;14.20;99.90
44833;DHT22;30569;51.252;9.830;2023-05-10T03:07:18;14.40;99.90
44833;DHT22;30569;51.252;9.830;2023-05-10T03:09:47;14.50;99.90
44833;DHT22;30569;51.252;9.830;2023-05-10T03:12:33;15.10;99.90
44833;DHT22;30569;51.252;9.830;2023-05-10T03:20:44;14.50;99.90
44833;DHT22;30569;51.252;9.830;2023-05-10T03:23:13;14.50;99.90
44833;DHT22;30569;51.252;9.830;2023-05-10T03:25:44;15.10;99.90
44833;DHT22;30569;51.252;9.830;2023-05-10T03:28:12;15.10;99.90
44833;DHT22;30569;51.252;9.830;2023-05-10T03:30:41;15.20;99.90
44833;DHT22;30569;51.252;9.830;2023-05-10T03:33:07;15.00;99.90
44833;DHT22;30569;51.252;9.830;2023-05-10T03:35:32;14.70;99.90
44833;DHT22;30569;51.252;9.830;2023-05-10T03:37:58;14.40;99.90
44833;DHT22;30569;51.252;9.830;2023-05-10T03:40:24;14.50;99.90
44833;DHT22;30569;51.252;9.830;2023-05-10T03:42:51;14.60;99.90
44833;DHT22;30569;51.252;9.830;2023-05-10T03:45:16;15.00;99.90
44833;DHT22;30569;51.252;9.830;2023-05-10T03:47:42;14.90;99.90
44833;DHT22;30569;51.252;9.830;2023-05-10T03:50:07;14.90;99.90
44833;DHT22;30569;51.252;9.830;2023-05-10T03:52:33;15.00;99.90
44833;DHT22;30569;51.252;9.830;2023-05-10T03:54:59;14.90;99.90
44833;DHT22;30569;51.252;9.830;2023-05-10T03:57:24;14.90;99.90
44833;DHT22;30569;51.252;9.830;2023-05-10T03:59:50;14.20;99.90
44833;DHT22;30569;51.252;9.830;2023-05-10T04:02:15;14.10;99.90
44833;DHT22;30569;51.252;9.830;2023-05-10T04:04:41;13.80;99.90
44833;DHT22;30569;51.252;9.830;2023-05-10T04:07:07;14.00;99.90
44833;DHT22;30569;51.252;9.830;2023-05-10T04:09:33;13.70;99.90
44833;DHT22;30569;51.252;9.830;2023-05-10T04:11:59;13.80;99.90
44833;DHT22;30569;51.252;9.830;2023-05-10T04:14:25;13.70;99.90
44833;DHT22;30569;51.252;9.830;2023-05-10T04:16:50;13.60;99.90
44833;DHT22;30569;51.252;9.830;2023-05-10T04:19:16;13.60;99.90
44833;DHT22;30569;51.252;9.830;2023-05-10T04:21:42;13.80;99.90
44833;DHT22;30569;51.252;9.830;2023-05-10T04:26:33;14.00;99.90
44833;DHT22;30569;51.252;9.830;2023-05-10T04:28:59;14.00;99.90
44833;DHT22;30569;51.252;9.830;2023-05-10T04:31:24;14.40;99.90
44833;DHT22;30569;51.252;9.830;2023-05-10T04:33:51;14.00;99.90
44833;DHT22;30569;51.252;9.830;2023-05-10T04:36:16;13.90;99.90
44833;DHT22;30569;51.252;9.830;2023-05-10T04:38:42;14.10;99.90
44833;DHT22;30569;51.252;9.830;2023-05-10T04:41:09;14.20;99.90
44833;DHT22;30569;51.252;9.830;2023-05-10T04:43:35;14.20;99.90
44833;DHT22;30569;51.252;9.830;2023-05-10T04:46:01;14.40;99.90
44833;DHT22;30569;51.252;9.830;2023-05-10T04:48:27;14.60;99.90
44833;DHT22;30569;51.252;9.830;2023-05-10T04:50:53;14.60;99.90
44833;DHT22;30569;51.252;9.830;2023-05-10T04:53:18;14.80;99.90
44833;DHT22;30569;51.252;9.830;2023-05-10T04:55:44;14.40;99.90
44833;DHT22;30569;51.252;9.830;2023-05-10T04:58:09;14.50;99.90
44833;DHT22;30569;51.252;9.830;2023-05-10T05:00:35;14.80;99.90
44833;DHT22;30569;51.252;9.830;2023-05-10T05:03:00;14.90;99.90
44833;DHT22;30569;51.252;9.830;2023-05-10T05:05:26;15.10;99.90
44833;DHT22;30569;51.252;9.830;2023-05-10T05:07:52;15.30;99.90
44833;DHT22;30569;51.252;9.830;2023-05-10T05:15:10;14.40;99.90
44833;DHT22;30569;51.252;9.830;2023-05-10T05:24:55;14.70;99.90
44833;DHT22;30569;51.252;9.830;2023-05-10T05:37:07;15.30;99.90
44833;DHT22;30569;51.252;9.830;2023-05-10T05:39:32;15.10;99.90
44833;DHT22;30569;51.252;9.830;2023-05-10T05:46:50;15.50;99.90
44833;DHT22;30569;51.252;9.830;2023-05-10T06:08:44;15.00;99.90
44833;DHT22;30569;51.252;9.830;2023-05-10T06:16:02;14.70;99.90
44833;DHT22;30569;51.252;9.830;2023-05-10T06:42:50;14.20;99.90
44833;DHT22;30569;51.252;9.830;2023-05-10T06:45:16;13.70;99.90
44833;DHT22;30569;51.252;9.830;2023-05-10T06:50:08;13.50;99.90
44833;DHT22;30569;51.252;9.830;2023-05-10T06:52:34;13.70;99.90
44833;DHT22;30569;51.252;9.830;2023-05-10T06:55:00;13.60;99.90
44833;DHT22;30569;51.252;9.830;2023-05-10T07:02:18;14.10;99.90
44833;DHT22;30569;51.252;9.830;2023-05-10T07:21:45;13.60;99.90
44833;DHT22;30569;51.252;9.830;2023-05-10T07:26:37;14.20;99.90
44833;DHT22;30569;51.252;9.830;2023-05-10T07:38:46;14.70;99.90
44833;DHT22;30569;51.252;9.830;2023-05-10T07:41:12;14.80;99.90
44833;DHT22;30569;51.252;9.830;2023-05-10T07:43:38;14.60;99.90
44833;DHT22;30569;51.252;9.830;2023-05-10T07:46:03;14.50;99.90
44833;DHT22;30569;51.252;9.830;2023-05-10T07:55:51;15.10;99.90
44833;DHT22;30569;51.252;9.830;2023-05-10T08:05:37;15.50;99.90
44833;DHT22;30569;51.252;9.830;2023-05-10T08:25:08;15.30;99.90
44833;DHT22;30569;51.252;9.830;2023-05-10T08:29:59;14.20;99.90
44833;DHT22;30569;51.252;9.830;2023-05-10T08:44:35;16.20;99.90
44833;DHT22;30569;51.252;9.830;2023-05-10T08:47:05;16.80;99.90
44833;DHT22;30569;51.252;9.830;2023-05-10T08:52:02;18.70;99.90
44833;DHT22;30569;51.252;9.830;2023-05-10T08:56:56;18.70;99.90
44833;DHT22;30569;51.252;9.830;2023-05-10T08:59:22;19.70;99.90
44833;DHT22;30569;51.252;9.830;2023-05-10T09:04:14;19.90;99.90
44833;DHT22;30569;51.252;9.830;2023-05-10T09:06:40;18.50;99.90
44833;DHT22;30569;51.252;9.830;2023-05-10T09:13:58;18.00;99.90
44833;DHT22;30569;51.252;9.830;2023-05-10T09:16:24;18.30;99.90
44833;DHT22;30569;51.252;9.830;2023-05-10T09:21:16;19.60;99.90
44833;DHT22;30569;51.252;9.830;2023-05-10T09:23:45;20.70;99.90
44833;DHT22;30569;51.252;9.830;2023-05-10T09:26:12;20.20;99.90
44833;DHT22;30569;51.252;9.830;2023-05-10T09:28:51;21.70;99.90
44833;DHT22;30569;51.252;9.830;2023-05-10T09:31:17;24.80;94.00
44833;DHT22;30569;51.252;9.830;2023-05-10T09:33:48;23.60;92.70
44833;DHT22;30569;51.252;9.830;2023-05-10T09:36:14;25.80;92.10
44833;DHT22;30569;51.252;9.830;2023-05-10T09:38:50;25.20;87.20
44833;DHT22;30569;51.252;9.830;2023-05-10T09:41:24;24.60;89.50
44833;DHT22;30569;51.252;9.830;2023-05-10T09:43:50;22.30;90.70
44833;DHT22;30569;51.252;9.830;2023-05-10T09:46:20;21.40;95.30
44833;DHT22;30569;51.252;9.830;2023-05-10T09:48:47;21.60;96.20
44833;DHT22;30569;51.252;9.830;2023-05-10T09:51:20;21.30;95.50
44833;DHT22;30569;51.252;9.830;2023-05-10T09:53:46;22.60;96.60
44833;DHT22;30569;51.252;9.830;2023-05-10T09:56:11;21.50;95.30
44833;DHT22;30569;51.252;9.830;2023-05-10T09:58:37;20.40;96.40
44833;DHT22;30569;51.252;9.830;2023-05-10T10:01:11;20.30;97.00
44833;DHT22;30569;51.252;9.830;2023-05-10T10:03:42;20.40;96.50
44833;DHT22;30569;51.252;9.830;2023-05-10T10:06:08;19.90;97.20
44833;DHT22;30569;51.252;9.830;2023-05-10T10:11:00;18.70;98.60
44833;DHT22;30569;51.252;9.830;2023-05-10T10:13:26;18.70;99.90
44833;DHT22;30569;51.252;9.830;2023-05-10T10:15:53;20.90;99.90
44833;DHT22;30569;51.252;9.830;2023-05-10T10:18:20;19.50;99.10
44833;DHT22;30569;51.252;9.830;2023-05-10T10:20:53;19.40;97.70
44833;DHT22;30569;51.252;9.830;2023-05-10T10:23:19;18.70;97.90
44833;DHT22;30569;51.252;9.830;2023-05-10T10:30:50;19.30;99.30
44833;DHT22;30569;51.252;9.830;2023-05-10T10:36:19;19.70;99.90
44833;DHT22;30569;51.252;9.830;2023-05-10T10:41:34;20.30;98.30
44833;DHT22;30569;51.252;9.830;2023-05-10T10:52:20;20.70;95.80
44833;DHT22;30569;51.252;9.830;2023-05-10T10:54:57;20.50;95.80
44833;DHT22;30569;51.252;9.830;2023-05-10T10:57:24;20.10;95.80
44833;DHT22;30569;51.252;9.830;2023-05-10T11:02:51;19.80;97.60
44833;DHT22;30569;51.252;9.830;2023-05-10T11:07:56;19.40;98.80
44833;DHT22;30569;51.252;9.830;2023-05-10T11:10:22;18.70;99.60
44833;DHT22;30569;51.252;9.830;2023-05-10T11:13:08;18.50;99.90
44833;DHT22;30569;51.252;9.830;2023-05-10T11:15:34;19.00;99.90
44833;DHT22;30569;51.252;9.830;2023-05-10T11:18:26;19.40;99.50
44833;DHT22;30569;51.252;9.830;2023-05-10T11:20:57;19.40;98.30
44833;DHT22;30569;51.252;9.830;2023-05-10T11:23:23;19.40;99.80
44833;DHT22;30569;51.252;9.830;2023-05-10T11:25:49;19.70;99.90
44833;DHT22;30569;51.252;9.830;2023-05-10T11:28:17;20.60;98.20
44833;DHT22;30569;51.252;9.830;2023-05-10T11:30:44;19.90;97.80
44833;DHT22;30569;51.252;9.830;2023-05-10T11:33:15;20.00;97.30
44833;DHT22;30569;51.252;9.830;2023-05-10T11:35:41;20.20;98.50
44833;DHT22;30569;51.252;9.830;2023-05-10T11:38:08;20.30;94.60
44833;DHT22;30569;51.252;9.830;2023-05-10T11:40:35;20.30;94.70
44833;DHT22;30569;51.252;9.830;2023-05-10T11:43:02;20.20;94.60
44833;DHT22;30569;51.252;9.830;2023-05-10T11:45:28;22.50;96.10
44833;DHT22;30569;51.252;9.830;2023-05-10T11:47:56;20.30;94.10
44833;DHT22;30569;51.252;9.830;2023-05-10T11:50:22;20.30;95.50
44833;DHT22;30569;51.252;9.830;2023-05-10T11:52:55;20.30;95.00
44833;DHT22;30569;51.252;9.830;2023-05-10T11:55:21;20.50;95.30
44833;DHT22;30569;51.252;9.830;2023-05-10T11:57:48;20.60;95.30
44833;DHT22;30569;51.252;9.830;2023-05-10T12:00:16;20.70;94.00
44833;DHT22;30569;51.252;9.830;2023-05-10T12:05:09;21.20;94.70
44833;DHT22;30569;51.252;9.830;2023-05-10T12:07:35;21.00;94.50
44833;DHT22;30569;51.252;9.830;2023-05-10T12:10:13;21.20;92.90
44833;DHT22;30569;51.252;9.830;2023-05-10T12:12:46;21.30;93.50
44833;DHT22;30569;51.252;9.830;2023-05-10T12:15:21;21.30;92.10
44833;DHT22;30569;51.252;9.830;2023-05-10T12:17:47;21.50;94.10
44833;DHT22;30569;51.252;9.830;2023-05-10T12:20:24;21.60;91.70
44833;DHT22;30569;51.252;9.830;2023-05-10T12:22:51;21.60;92.50
44833;DHT22;30569;51.252;9.830;2023-05-10T12:25:18;21.50;93.50
44833;DHT22;30569;51.252;9.830;2023-05-10T12:27:57;20.70;93.30
44833;DHT22;30569;51.252;9.830;2023-05-10T12:30:28;19.00;97.50
44833;DHT22;30569;51.252;9.830;2023-05-10T12:32:58;19.50;97.40
44833;DHT22;30569;51.252;9.830;2023-05-10T12:35:24;20.20;94.40
44833;DHT22;30569;51.252;9.830;2023-05-10T12:37:53;19.80;93.50
44833;DHT22;30569;51.252;9.830;2023-05-10T12:40:18;19.70;96.00
44833;DHT22;30569;51.252;9.830;2023-05-10T12:42:45;19.10;95.50
44833;DHT22;30569;51.252;9.830;2023-05-10T12:45:11;19.00;96.20
44833;DHT22;30569;51.252;9.830;2023-05-10T12:47:37;18.50;97.30
44833;DHT22;30569;51.252;9.830;2023-05-10T12:50:03;18.60;97.80
44833;DHT22;30569;51.252;9.830;2023-05-10T12:52:30;18.80;98.60
44833;DHT22;30569;51.252;9.830;2023-05-10T12:54:57;19.90;97.70
44833;DHT22;30569;51.252;9.830;2023-05-10T13:04:43;18.50;98.30
44833;DHT22;30569;51.252;9.830;2023-05-10T13:07:09;18.10;97.90
44833;DHT22;30569;51.252;9.830;2023-05-10T13:12:01;18.30;99.30
44833;DHT22;30569;51.252;9.830;2023-05-10T13:14:29;19.20;98.30
44833;DHT22;30569;51.252;9.830;2023-05-10T13:19:20;18.50;98.20
44833;DHT22;30569;51.252;9.830;2023-05-10T13:26:43;19.40;97.50
44833;DHT22;30569;51.252;9.830;2023-05-10T13:29:09;19.60;96.80
44833;DHT22;30569;51.252;9.830;2023-05-10T13:34:02;19.30;99.20
44833;DHT22;30569;51.252;9.830;2023-05-10T13:36:28;19.50;99.00
44833;DHT22;30569;51.252;9.830;2023-05-10T13:38:54;19.50;99.40
44833;DHT22;30569;51.252;9.830;2023-05-10T13:41:20;19.90;98.90
44833;DHT22;30569;51.252;9.830;2023-05-10T13:43:46;19.50;98.40
44833;DHT22;30569;51.252;9.830;2023-05-10T13:46:13;19.50;99.90
44833;DHT22;30569;51.252;9.830;2023-05-10T13:48:39;19.30;99.90
44833;DHT22;30569;51.252;9.830;2023-05-10T13:53:33;18.00;99.90
44833;DHT22;30569;51.252;9.830;2023-05-10T14:05:42;17.80;99.90
44833;DHT22;30569;51.252;9.830;2023-05-10T14:10:35;18.70;99.90
44833;DHT22;30569;51.252;9.830;2023-05-10T14:30:06;19.30;99.90
44833;DHT22;30569;51.252;9.830;2023-05-10T14:32:32;19.50;99.90
44833;DHT22;30569;51.252;9.830;2023-05-10T14:37:23;19.40;99.90
44833;DHT22;30569;51.252;9.830;2023-05-10T14:44:41;19.30;99.60
44833;DHT22;30569;51.252;9.830;2023-05-10T15:06:35;16.80;99.90
44833;DHT22;30569;51.252;9.830;2023-05-10T15:09:01;16.40;99.90
44833;DHT22;30569;51.252;9.830;2023-05-10T15:16:21;16.90;99.90
44833;DHT22;30569;51.252;9.830;2023-05-10T15:18:46;17.10;99.90
44833;DHT22;30569;51.252;9.830;2023-05-10T15:26:05;17.50;99.90
44833;DHT22;30569;51.252;9.830;2023-05-10T15:40:41;17.70;99.90
44833;DHT22;30569;51.252;9.830;2023-05-10T16:00:10;15.60;99.90
44833;DHT22;30569;51.252;9.830;2023-05-10T16:09:55;15.80;99.90
44833;DHT22;30569;51.252;9.830;2023-05-10T16:34:19;16.20;99.90
44833;DHT22;30569;51.252;9.830;2023-05-10T16:36:48;16.40;99.90
44833;DHT22;30569;51.252;9.830;2023-05-10T16:39:14;16.40;99.90
44833;DHT22;30569;51.252;9.830;2023-05-10T16:44:05;16.60;99.90
44833;DHT22;30569;51.252;9.830;2023-05-10T16:54:00;15.60;99.90
44833;DHT22;30569;51.252;9.830;2023-05-10T17:06:10;16.40;99.90
44833;DHT22;30569;51.252;9.830;2023-05-10T17:11:03;15.90;99.90
44833;DHT22;30569;51.252;9.830;2023-05-10T17:13:29;16.10;99.90
44833;DHT22;30569;51.252;9.830;2023-05-10T17:20:51;15.40;99.90
44833;DHT22;30569;51.252;9.830;2023-05-10T17:35:27;15.90;99.90
44833;DHT22;30569;51.252;9.830;2023-05-10T17:45:10;16.40;99.90
44833;DHT22;30569;51.252;9.830;2023-05-10T17:47:38;16.60;99.90
44833;DHT22;30569;51.252;9.830;2023-05-10T17:50:05;16.60;99.90
44833;DHT22;30569;51.252;9.830;2023-05-10T17:52:30;16.50;99.90
44833;DHT22;30569;51.252;9.830;2023-05-10T17:54:56;16.60;99.90
44833;DHT22;30569;51.252;9.830;2023-05-10T17:57:22;16.60;99.90
44833;DHT22;30569;51.252;9.830;2023-05-10T18:07:08;16.30;99.90
44833;DHT22;30569;51.252;9.830;2023-05-10T18:12:01;16.00;99.90
44833;DHT22;30569;51.252;9.830;2023-05-10T18:26:43;14.60;99.90
44833;DHT22;30569;51.252;9.830;2023-05-10T18:38:53;15.30;99.90
44833;DHT22;30569;51.252;9.830;2023-05-10T18:41:19;15.20;99.90
44833;DHT22;30569;51.252;9.830;2023-05-10T18:46:11;15.00;99.90
44833;DHT22;30569;51.252;9.830;2023-05-10T18:55:58;14.80;99.90
44833;DHT22;30569;51.252;9.830;2023-05-10T18:58:27;14.80;99.90
44833;DHT22;30569;51.252;9.830;2023-05-10T19:00:53;14.90;99.90
44833;DHT22;30569;51.252;9.830;2023-05-10T19:03:19;14.20;99.90
44833;DHT22;30569;51.252;9.830;2023-05-10T19:30:08;14.30;99.90
44833;DHT22;30569;51.252;9.830;2023-05-10T19:37:26;13.70;99.90
44833;DHT22;30569;51.252;9.830;2023-05-10T19:42:18;13.80;99.90
44833;DHT22;30569;51.252;9.830;2023-05-10T19:49:36;13.80;99.90
44833;DHT22;30569;51.252;9.830;2023-05-10T19:59:20;13.40;99.90
44833;DHT22;30569;51.252;9.830;2023-05-10T20:06:38;13.10;99.90
44833;DHT22;30569;51.252;9.830;2023-05-10T20:09:03;13.10;99.90
44833;DHT22;30569;51.252;9.830;2023-05-10T20:11:29;13.10;99.90
44833;DHT22;30569;51.252;9.830;2023-05-10T20:13:55;13.20;99.90
44833;DHT22;30569;51.252;9.830;2023-05-10T20:21:13;13.40;99.90
44833;DHT22;30569;51.252;9.830;2023-05-10T20:23:38;13.40;99.90
44833;DHT22;30569;51.252;9.830;2023-05-10T20:26:04;13.30;99.90
44833;DHT22;30569;51.252;9.830;2023-05-10T20:28:30;13.20;99.90
44833;DHT22;30569;51.252;9.830;2023-05-10T20:30:56;13.30;99.90
44833;DHT22;30569;51.252;9.830;2023-05-10T20:33:22;13.40;99.90
44833;DHT22;30569;51.252;9.830;2023-05-10T20:35:48;13.40;99.90
44833;DHT22;30569;51.252;9.830;2023-05-10T20:38:14;13.10;99.90
44833;DHT22;30569;51.252;9.830;2023-05-10T20:40:40;13.00;99.90
44833;DHT22;30569;51.252;9.830;2023-05-10T20:47:58;12.80;99.90
44833;DHT22;30569;51.252;9.830;2023-05-10T20:50:23;12.80;99.90
44833;DHT22;30569;51.252;9.830;2023-05-10T20:52:50;12.70;99.90
44833;DHT22;30569;51.252;9.830;2023-05-10T20:55:17;12.70;99.90
44833;DHT22;30569;51.252;9.830;2023-05-10T20:57:42;12.60;99.90
44833;DHT22;30569;51.252;9.830;2023-05-10T21:00:09;12.60;99.90
44833;DHT22;30569;51.252;9.830;2023-05-10T21:05:01;12.60;99.90
44833;DHT22;30569;51.252;9.830;2023-05-10T21:07:27;12.60;99.90
44833;DHT22;30569;51.252;9.830;2023-05-10T21:09:52;12.20;99.90
44833;DHT22;30569;51.252;9.830;2023-05-10T21:12:18;12.00;99.90
44833;DHT22;30569;51.252;9.830;2023-05-10T21:14:43;11.70;99.90
44833;DHT22;30569;51.252;9.830;2023-05-10T21:19:37;12.20;99.90
44833;DHT22;30569;51.252;9.830;2023-05-10T21:22:03;12.20;99.90
44833;DHT22;30569;51.252;9.830;2023-05-10T21:24:29;12.40;99.90
44833;DHT22;30569;51.252;9.830;2023-05-10T21:31:47;12.20;99.90
44833;DHT22;30569;51.252;9.830;2023-05-10T21:36:38;12.20;99.90
44833;DHT22;30569;51.252;9.830;2023-05-10T21:43:56;12.30;99.90
44833;DHT22;30569;51.252;9.830;2023-05-10T21:46:21;12.20;99.90
44833;DHT22;30569;51.252;9.830;2023-05-10T21:48:47;12.30;99.90
44833;DHT22;30569;51.252;9.830;2023-05-10T21:53:39;11.80;99.90
44833;DHT22;30569;51.252;9.830;2023-05-10T21:56:05;11.80;99.90
44833;DHT22;30569;51.252;9.830;2023-05-10T21:58:31;11.90;99.90
44833;DHT22;30569;51.252;9.830;2023-05-10T22:15:33;12.40;99.90
44833;DHT22;30569;51.252;9.830;2023-05-10T22:25:16;12.50;99.90
44833;DHT22;30569;51.252;9.830;2023-05-10T22:27:42;12.60;99.90
44833;DHT22;30569;51.252;9.830;2023-05-10T22:30:07;12.50;99.90
44833;DHT22;30569;51.252;9.830;2023-05-10T22:32:33;12.50;99.90
44833;DHT22;30569;51.252;9.830;2023-05-10T22:34:59;12.40;99.90
44833;DHT22;30569;51.252;9.830;2023-05-10T22:37:24;12.40;99.90
44833;DHT22;30569;51.252;9.830;2023-05-10T22:44:42;12.50;99.90
44833;DHT22;30569;51.252;9.830;2023-05-10T22:49:34;12.40;99.90
44833;DHT22;30569;51.252;9.830;2023-05-10T22:52:00;12.30;99.90
44833;DHT22;30569;51.252;9.830;2023-05-10T22:54:26;12.40;99.90
44833;DHT22;30569;51.252;9.830;2023-05-10T22:56:52;12.00;99.90
44833;DHT22;30569;51.252;9.830;2023-05-10T22:59:18;11.90;99.90
44833;DHT22;30569;51.252;9.830;2023-05-10T23:01:43;11.90;99.90
44833;DHT22;30569;51.252;9.830;2023-05-10T23:06:35;12.40;99.90
44833;DHT22;30569;51.252;9.830;2023-05-10T23:09:00;12.30;99.90
44833;DHT22;30569;51.252;9.830;2023-05-10T23:16:17;12.30;99.90
44833;DHT22;30569;51.252;9.830;2023-05-10T23:18:43;12.10;99.90
44833;DHT22;30569;51.252;9.830;2023-05-10T23:21:09;11.80;99.90
44833;DHT22;30569;51.252;9.830;2023-05-10T23:23:34;12.00;99.90
44833;DHT22;30569;51.252;9.830;2023-05-10T23:26:00;12.20;99.90
44833;DHT22;30569;51.252;9.830;2023-05-10T23:30:56;12.00;99.90
44833;DHT22;30569;51.252;9.830;2023-05-10T23:33:22;12.10;99.90
44833;DHT22;30569;51.252;9.830;2023-05-10T23:35:48;12.20;99.90
44833;DHT22;30569;51.252;9.830;2023-05-10T23:38:14;12.00;99.90
44833;DHT22;30569;51.252;9.830;2023-05-10T23:45:32;11.90;99.90
44833;DHT22;30569;51.252;9.830;2023-05-10T23:47:57;11.90;99.90
44833;DHT22;30569;51.252;9.830;2023-05-10T23:50:23;12.00;99.90
44833;DHT22;30569;51.252;9.830;2023-05-10T23:52:48;11.90;99.90
44833;DHT22;30569;51.252;9.830;2023-05-10T23:55:14;12.00;99.90
44833;DHT22;30569;51.252;9.830;2023-05-10T23:57:39;11.80;99.90
